Observation data for Levelland on 11/07/2019      Previous  Date       Current Mesonet Observations  Soil Data  Daily Summary Page  Observations in Plain Language
KLD1 070600Z 33006KT 13/13 A3019 RMK A01 T01340128  RH  100%=      5-min Rain = 0
KLD1 070605Z 34005KT 13/13 A3018 RMK A01 T01340128  RH  100%=      5-min Rain = 0
KLD1 070610Z 35004KT 13/13 A3018 RMK A01 T01340128  RH  100%=      5-min Rain = 0
KLD1 070615Z 01002KT 13/13 A3018 RMK A01 T01340128  RH  100%=      5-min Rain = 0
KLD1 070620Z 01002KT 13/13 A3018 RMK A01 T01340128  RH  100%=      5-min Rain = 0
KLD1 070625Z 34002KT 13/13 A3018 RMK A01 T01340128  RH  100%=      5-min Rain = 0
KLD1 070630Z 32003KT 13/13 A3018 RMK A01 T01340128  RH  100%=      5-min Rain = 0
KLD1 070635Z 31002KT 13/13 A3018 RMK A01 T01340128  RH  100%=      5-min Rain = 0
KLD1 070640Z 32001KT 13/13 A3017 RMK A01 T01340128  RH  100%=      5-min Rain = 0
KLD1 070645Z 19001KT 13/13 A3017 RMK A01 T01340128  RH  100%=      5-min Rain = 0
KLD1 070650Z 18002KT 13/13 A3017 RMK A01 T01340128  RH  100%=      5-min Rain = 0
KLD1 070655Z 16002KT 13/13 A3016 RMK A01 T01330128  RH  100%=      5-min Rain = 0
KLD1 070700Z 18003KT 13/13 A3016 RMK A01 T01330128  RH  100%=      5-min Rain = 0
KLD1 070705Z 20002KT 13/13 A3017 RMK A01 T01330127  RH  100%=      5-min Rain = 0
KLD1 070710Z 25003KT 13/13 A3017 RMK A01 T01330127  RH  100%=      5-min Rain = 0
KLD1 070715Z 26006KT 13/13 A3018 RMK A01 T01330127  RH  100%=      5-min Rain = 0
KLD1 070720Z 28005KT 13/13 A3019 RMK A01 T01330127  RH  100%=      5-min Rain = 0
KLD1 070725Z 29003KT 13/13 A3018 RMK A01 T01330127  RH  100%=      5-min Rain = 0
KLD1 070730Z 30003KT 13/13 A3019 RMK A01 T01330127  RH  100%=      5-min Rain = 0
KLD1 070735Z 32003KT 13/13 A3018 RMK A01 T01320126  RH  100%=      5-min Rain = 0
KLD1 070740Z 32003KT 13/13 A3018 RMK A01 T01320126  RH  100%=      5-min Rain = 0.01
KLD1 070745Z 34004KT 13/13 A3018 RMK A01 T01320126  RH  100%=      5-min Rain = 0
KLD1 070750Z 33004KT 13/13 A3019 RMK A01 T01320126  RH  100%=      5-min Rain = 0
KLD1 070755Z 33005KT 13/13 A3019 RMK A01 T01320126  RH  100%=      5-min Rain = 0
KLD1 070800Z 35015G32KT 12/12 A3021 RMK A01 T01240118  RH  100%=      5-min Rain = 0
KLD1 070805Z 35027G34KT 07/06 A3024 RMK A01 T00690059  RH  095%=      5-min Rain = 0
KLD1 070810Z 35025G32KT 06/05 A3025 RMK A01 T00580050  RH  096%=      5-min Rain = 0.01
KLD1 070815Z 36026G32KT 05/04 A3025 RMK A01 T00540044  RH  095%=      5-min Rain = 0.01
KLD1 070820Z 36025G31KT 05/04 A3025 RMK A01 T00500039  RH  094%=      5-min Rain = 0.01
KLD1 070825Z 01027G34KT 05/04 A3024 RMK A01 T00460035  RH  095%=      5-min Rain = 0.01
KLD1 070830Z 01022G29KT 04/04 A3025 RMK A01 T00440035  RH  095%=      5-min Rain = 0.01
KLD1 070835Z 00021G27KT 04/03 A3026 RMK A01 T00430033  RH  095%=      5-min Rain = 0
KLD1 070840Z 36023G29KT 04/03 A3026 RMK A01 T00420032  RH  095%=      5-min Rain = 0
KLD1 070845Z 36021G26KT 04/03 A3026 RMK A01 T00400029  RH  094%=      5-min Rain = 0
KLD1 070850Z 00020G25KT 04/03 A3026 RMK A01 T00380028  RH  095%=      5-min Rain = 0
KLD1 070855Z 01022G27KT 04/03 A3026 RMK A01 T00360026  RH  095%=      5-min Rain = 0
KLD1 070900Z 01023G30KT 03/02 A3025 RMK A01 T00340024  RH  095%=      5-min Rain = 0
KLD1 070905Z 01024G32KT 03/02 A3025 RMK A01 T00320022  RH  095%=      5-min Rain = 0
KLD1 070910Z 01026G31KT 03/02 A3025 RMK A01 T00290020  RH  095%=      5-min Rain = 0
KLD1 070915Z 01023G30KT 03/02 A3025 RMK A01 T00290021  RH  096%=      5-min Rain = 0
KLD1 070920Z 01021G27KT 03/02 A3025 RMK A01 T00290022  RH  097%=      5-min Rain = 0
KLD1 070925Z 02022G28KT 03/02 A3024 RMK A01 T00280021  RH  097%=      5-min Rain = 0
KLD1 070930Z 01024G33KT 03/02 A3024 RMK A01 T00260019  RH  097%=      5-min Rain = 0
KLD1 070935Z 01025G31KT 02/02 A3025 RMK A01 T00230016  RH  096%=      5-min Rain = 0
KLD1 070940Z 01025G32KT 02/02 A3025 RMK A01 T00210015  RH  097%=      5-min Rain = 0
KLD1 070945Z 01024G33KT 02/01 A3026 RMK A01 T00200014  RH  097%=      5-min Rain = 0
KLD1 070950Z 01023G28KT 02/01 A3026 RMK A01 T00190013  RH  097%=      5-min Rain = 0
KLD1 070955Z 01023KT 02/01 A3026 RMK A01 T00180012  RH  097%=      5-min Rain = 0
KLD1 071000Z 01026G33KT 02/01 A3026 RMK A01 T00160008  RH  096%=      5-min Rain = 0
KLD1 071005Z 01024G30KT 02/01 A3025 RMK A01 T00150007  RH  095%=      5-min Rain = 0
KLD1 071010Z 01022G31KT 02/01 A3025 RMK A01 T00150006  RH  095%=      5-min Rain = 0
KLD1 071015Z 01021G30KT 01/01 A3025 RMK A01 T00140007  RH  096%=      5-min Rain = 0
KLD1 071020Z 01021G28KT 01/01 A3025 RMK A01 T00140007  RH  096%=      5-min Rain = 0
KLD1 071025Z 00023G29KT 01/01 A3026 RMK A01 T00130006  RH  096%=      5-min Rain = 0
KLD1 071030Z 01022G29KT 01/01 A3026 RMK A01 T00130005  RH  096%=      5-min Rain = 0
KLD1 071035Z 01023G29KT 01/01 A3026 RMK A01 T00120005  RH  096%=      5-min Rain = 0
KLD1 071040Z 00020G25KT 01/01 A3027 RMK A01 T00130005  RH  096%=      5-min Rain = 0
KLD1 071045Z 36023G31KT 01/00 A3027 RMK A01 T00110004  RH  096%=      5-min Rain = 0
KLD1 071050Z 36025G31KT 01/00 A3028 RMK A01 T00100003  RH  096%=      5-min Rain = 0
KLD1 071055Z 00025G31KT 01/00 A3028 RMK A01 T00090002  RH  096%=      5-min Rain = 0
KLD1 071100Z 01023G30KT 01/00 A3028 RMK A01 T00090001  RH  095%=      5-min Rain = 0
KLD1 071105Z 01020G25KT 01/00 A3029 RMK A01 T00090001  RH  096%=      5-min Rain = 0
KLD1 071110Z 00020G29KT 01/00 A303 RMK A01 T00080002  RH  096%=      5-min Rain = 0
KLD1 071115Z 00024G30KT 01/00 A3031 RMK A01 T00080001  RH  097%=      5-min Rain = 0
KLD1 071120Z 00022G30KT 01/00 A3031 RMK A01 T000700-0  RH  096%=      5-min Rain = 0
KLD1 071125Z 01019G24KT 01/00 A3032 RMK A01 T00060000  RH  097%=      5-min Rain = 0
KLD1 071130Z 36021G28KT 01/00 A3032 RMK A01 T000600-0  RH  097%=      5-min Rain = 0
KLD1 071135Z 01022KT 01/M00 A3032 RMK A01 T00051001  RH  097%=      5-min Rain = 0
KLD1 071140Z 01023G28KT 00/M00 A3031 RMK A01 T00041002  RH  097%=      5-min Rain = 0
KLD1 071145Z 00021G26KT 00/M00 A3031 RMK A01 T00031003  RH  097%=      5-min Rain = 0.01
KLD1 071150Z 01021G27KT 00/M00 A303 RMK A01 T00021003  RH  098%=      5-min Rain = 0
KLD1 071155Z 01021G27KT 00/M00 A3032 RMK A01 T00011003  RH  098%=      5-min Rain = 0
KLD1 071200Z 02021G29KT 00/M00 A3032 RMK A01 T00011003  RH  098%=      5-min Rain = 0
KLD1 071205Z 02022G29KT 00/M00 A3033 RMK A01 T00011004  RH  097%=      5-min Rain = 0
KLD1 071210Z 01020G27KT 00/M01 A3033 RMK A01 T00011005  RH  097%=      5-min Rain = 0
KLD1 071215Z 02020G26KT 00/M01 A3034 RMK A01 T00011005  RH  097%=      5-min Rain = 0
KLD1 071220Z 01022KT 00/01 A3034 RMK A01 T000000-6  RH  097%=      5-min Rain = 0
KLD1 071225Z 02019G27KT 00/01 A3034 RMK A01 T000000-5  RH  097%=      5-min Rain = 0
KLD1 071230Z 02022G30KT M00/M01 A3034 RMK A01 T10011006  RH  097%=      5-min Rain = 0.01
KLD1 071235Z 01022G27KT M00/M01 A3034 RMK A01 T10011006  RH  097%=      5-min Rain = 0
KLD1 071240Z 02021G27KT M00/M01 A3034 RMK A01 T10011006  RH  097%=      5-min Rain = 0
KLD1 071245Z 01018G23KT 00/01 A3035 RMK A01 T00-000-5  RH  098%=      5-min Rain = 0
KLD1 071250Z 01023G28KT M00/M01 A3035 RMK A01 T10021006  RH  098%=      5-min Rain = 0
KLD1 071255Z 01021G26KT M00/M01 A3037 RMK A01 T10031008  RH  097%=      5-min Rain = 0
KLD1 071300Z 01021G26KT M00/M01 A3037 RMK A01 T10031008  RH  097%=      5-min Rain = 0
KLD1 071305Z 01021KT M00/M01 A3038 RMK A01 T10031008  RH  097%=      5-min Rain = 0
KLD1 071310Z 01021G27KT M00/M01 A3038 RMK A01 T10031008  RH  097%=      5-min Rain = 0
KLD1 071315Z 01021G26KT M00/M01 A3039 RMK A01 T10031008  RH  097%=      5-min Rain = 0
KLD1 071320Z 01021G27KT M00/M01 A3039 RMK A01 T10031009  RH  097%=      5-min Rain = 0
KLD1 071325Z 01021G28KT M00/M01 A3038 RMK A01 T10031009  RH  097%=      5-min Rain = 0
KLD1 071330Z 02022G28KT M00/M01 A3037 RMK A01 T10031009  RH  097%=      5-min Rain = 0
KLD1 071335Z 02021G29KT M00/M01 A3036 RMK A01 T10041009  RH  097%=      5-min Rain = 0
KLD1 071340Z 02018G26KT M00/M01 A3037 RMK A01 T10031008  RH  097%=      5-min Rain = 0
KLD1 071345Z 01019G25KT M00/M01 A3038 RMK A01 T10031007  RH  098%=      5-min Rain = 0
KLD1 071350Z 01020G25KT M00/M01 A3038 RMK A01 T10031008  RH  098%=      5-min Rain = 0.01
KLD1 071355Z 01018G25KT M00/M01 A3039 RMK A01 T10031009  RH  097%=      5-min Rain = 0
KLD1 071400Z 02019G24KT M00/M01 A3039 RMK A01 T10041009  RH  097%=      5-min Rain = 0
KLD1 071405Z 01017G22KT M00/M01 A3039 RMK A01 T10031009  RH  097%=      5-min Rain = 0
KLD1 071410Z 01018G23KT M00/M01 A3041 RMK A01 T10041009  RH  097%=      5-min Rain = 0
KLD1 071415Z 01017KT M00/M01 A3042 RMK A01 T10041010  RH  097%=      5-min Rain = 0
KLD1 071420Z 01018G24KT M00/M01 A3041 RMK A01 T10041010  RH  096%=      5-min Rain = 0
KLD1 071425Z 01017G23KT M00/M01 A3041 RMK A01 T10031009  RH  097%=      5-min Rain = 0
KLD1 071430Z 01018KT M00/M01 A3042 RMK A01 T10041009  RH  097%=      5-min Rain = 0
KLD1 071435Z 01018G23KT M01/M01 A3042 RMK A01 T10051010  RH  097%=      5-min Rain = 0
KLD1 071440Z 02018G23KT M01/M01 A3041 RMK A01 T10051010  RH  097%=      5-min Rain = 0
KLD1 071445Z 02017KT M01/M01 A3041 RMK A01 T10051010  RH  098%=      5-min Rain = 0
KLD1 071450Z 02019KT M01/M01 A3041 RMK A01 T10051009  RH  098%=      5-min Rain = 0
KLD1 071455Z 02018G23KT M01/M01 A3041 RMK A01 T10051009  RH  098%=      5-min Rain = 0
KLD1 071500Z 02017KT M00/M01 A3042 RMK A01 T10041009  RH  098%=      5-min Rain = 0
KLD1 071505Z 02017G22KT M00/M01 A3042 RMK A01 T10041008  RH  098%=      5-min Rain = 0
KLD1 071510Z 02017KT M00/M01 A3042 RMK A01 T10041008  RH  098%=      5-min Rain = 0
KLD1 071515Z 02017KT M00/M01 A3042 RMK A01 T10041008  RH  098%=      5-min Rain = 0
KLD1 071520Z 01018G24KT M00/M01 A3043 RMK A01 T10041009  RH  098%=      5-min Rain = 0
KLD1 071525Z 01018KT M01/M01 A3044 RMK A01 T10051009  RH  098%=      5-min Rain = 0
KLD1 071530Z 01017KT M01/M01 A3044 RMK A01 T10051010  RH  098%=      5-min Rain = 0
KLD1 071535Z 02017KT M01/M01 A3044 RMK A01 T10051009  RH  098%=      5-min Rain = 0
KLD1 071540Z 02017KT M01/M01 A3044 RMK A01 T10061010  RH  098%=      5-min Rain = 0
KLD1 071545Z 02016KT M01/M01 A3045 RMK A01 T10051011  RH  097%=      5-min Rain = 0
KLD1 071550Z 01013KT M00/M01 A3046 RMK A01 T10041010  RH  097%=      5-min Rain = 0
KLD1 071555Z 01013KT M00/M01 A3046 RMK A01 T10041010  RH  097%=      5-min Rain = 0
KLD1 071600Z 01014KT M00/M01 A3046 RMK A01 T10041010  RH  096%=      5-min Rain = 0
KLD1 071605Z 02015KT M00/M01 A3045 RMK A01 T10031009  RH  097%=      5-min Rain = 0
KLD1 071610Z 02013KT M00/M01 A3044 RMK A01 T10021008  RH  097%=      5-min Rain = 0
KLD1 071615Z 01014G19KT M00/M01 A3044 RMK A01 T10031008  RH  097%=      5-min Rain = 0
KLD1 071620Z 01014KT M00/M01 A3044 RMK A01 T10031008  RH  097%=      5-min Rain = 0.01
KLD1 071625Z 01015G20KT M00/M01 A3043 RMK A01 T10031009  RH  097%=      5-min Rain = 0
KLD1 071630Z 01016KT M00/M01 A3043 RMK A01 T10031009  RH  097%=      5-min Rain = 0.01
KLD1 071635Z 01017KT M00/M01 A3044 RMK A01 T10031009  RH  097%=      5-min Rain = 0
KLD1 071640Z 02016KT M00/M01 A3044 RMK A01 T10041009  RH  097%=      5-min Rain = 0
KLD1 071645Z 02016KT M00/M01 A3044 RMK A01 T10041009  RH  097%=      5-min Rain = 0
KLD1 071650Z 01013KT M01/M01 A3045 RMK A01 T10051010  RH  097%=      5-min Rain = 0
KLD1 071655Z 02014KT M00/M01 A3044 RMK A01 T10041009  RH  098%=      5-min Rain = 0
KLD1 071700Z 03015KT M00/M01 A3044 RMK A01 T10041008  RH  098%=      5-min Rain = 0
KLD1 071705Z 02014G19KT M00/M01 A3044 RMK A01 T10031007  RH  098%=      5-min Rain = 0
KLD1 071710Z 02012KT M00/M01 A3045 RMK A01 T10031007  RH  098%=      5-min Rain = 0
KLD1 071715Z 02013KT M00/M01 A3045 RMK A01 T10021006  RH  098%=      5-min Rain = 0.01
KLD1 071720Z 03015KT M00/M01 A3046 RMK A01 T10021007  RH  098%=      5-min Rain = 0
KLD1 071725Z 03012KT 00/01 A3045 RMK A01 T00-000-5  RH  098%=      5-min Rain = 0
KLD1 071730Z 02013KT 00/01 A3045 RMK A01 T00-000-5  RH  098%=      5-min Rain = 0
KLD1 071735Z 02012KT 00/00 A3045 RMK A01 T000000-4  RH  098%=      5-min Rain = 0
KLD1 071740Z 02011KT 00/00 A3045 RMK A01 T00-000-4  RH  098%=      5-min Rain = 0
KLD1 071745Z 02012KT 00/00 A3046 RMK A01 T00-000-4  RH  098%=      5-min Rain = 0
KLD1 071750Z 01012KT M00/M01 A3046 RMK A01 T10011005  RH  098%=      5-min Rain = 0
KLD1 071755Z 01012KT M00/M01 A3046 RMK A01 T10011005  RH  098%=      5-min Rain = 0
KLD1 071800Z 01011KT M00/M00 A3046 RMK A01 T10011004  RH  099%=      5-min Rain = 0
KLD1 071805Z 00013KT M00/M01 A3045 RMK A01 T10021006  RH  099%=      5-min Rain = 0
KLD1 071810Z 00011G16KT M00/M01 A3045 RMK A01 T10021005  RH  099%=      5-min Rain = 0
KLD1 071815Z 01011KT M00/M00 A3046 RMK A01 T10011003  RH  099%=      5-min Rain = 0
KLD1 071820Z 00013KT M00/M00 A3046 RMK A01 T10011004  RH  099%=      5-min Rain = 0
KLD1 071825Z 01010KT M00/M00 A3047 RMK A01 T10011004  RH  099%=      5-min Rain = 0
KLD1 071830Z 01011KT M00/M00 A3046 RMK A01 T10021004  RH  099%=      5-min Rain = 0
KLD1 071835Z 01013KT M00/M01 A3046 RMK A01 T10031006  RH  099%=      5-min Rain = 0
KLD1 071840Z 01011KT M00/M00 A3045 RMK A01 T10011004  RH  099%=      5-min Rain = 0
KLD1 071845Z 01014KT M00/M00 A3045 RMK A01 T10021004  RH  099%=      5-min Rain = 0
KLD1 071850Z 01014KT M00/M01 A3044 RMK A01 T10031005  RH  099%=      5-min Rain = 0
KLD1 071855Z 01014KT M00/M01 A3043 RMK A01 T10031005  RH  100%=      5-min Rain = 0
KLD1 071900Z 01014KT M00/M01 A3044 RMK A01 T10031006  RH  100%=      5-min Rain = 0
KLD1 071905Z 01014KT M00/M01 A3043 RMK A01 T10031005  RH  100%=      5-min Rain = 0
KLD1 071910Z 01015KT M01/M01 A3043 RMK A01 T10051007  RH  099%=      5-min Rain = 0
KLD1 071915Z 02015KT M00/M01 A3042 RMK A01 T10041007  RH  099%=      5-min Rain = 0
KLD1 071920Z 02015KT M00/M01 A3041 RMK A01 T10031005  RH  100%=      5-min Rain = 0
KLD1 071925Z 03016KT M00/M01 A3041 RMK A01 T10031006  RH  099%=      5-min Rain = 0
KLD1 071930Z 02014KT M00/M01 A304 RMK A01 T10031005  RH  099%=      5-min Rain = 0
KLD1 071935Z 03013KT M00/M00 A3041 RMK A01 T10011004  RH  099%=      5-min Rain = 0
KLD1 071940Z 02013KT M00/M01 A3042 RMK A01 T10011005  RH  099%=      5-min Rain = 0
KLD1 071945Z 01012KT M00/M01 A3042 RMK A01 T10021006  RH  099%=      5-min Rain = 0
KLD1 071950Z 01014KT M00/M01 A3042 RMK A01 T10031006  RH  099%=      5-min Rain = 0
KLD1 071955Z 01015KT M00/M01 A3042 RMK A01 T10031007  RH  098%=      5-min Rain = 0
KLD1 072000Z 01014KT M00/M01 A3042 RMK A01 T10031007  RH  098%=      5-min Rain = 0
KLD1 072005Z 02013KT M00/M01 A3041 RMK A01 T10021007  RH  098%=      5-min Rain = 0
KLD1 072010Z 00013KT M00/M01 A3041 RMK A01 T10011006  RH  098%=      5-min Rain = 0
KLD1 072015Z 00013KT M00/M01 A3042 RMK A01 T10021007  RH  097%=      5-min Rain = 0
KLD1 072020Z 00013KT M00/M01 A3042 RMK A01 T10021008  RH  097%=      5-min Rain = 0
KLD1 072025Z 01013KT M00/M01 A3042 RMK A01 T10021007  RH  097%=      5-min Rain = 0
KLD1 072030Z 00012G17KT M00/M01 A3042 RMK A01 T10021007  RH  098%=      5-min Rain = 0
KLD1 072035Z 01014KT M00/M01 A3042 RMK A01 T10031008  RH  098%=      5-min Rain = 0
KLD1 072040Z 00013KT M00/M01 A3041 RMK A01 T10041008  RH  098%=      5-min Rain = 0
KLD1 072045Z 01012KT M00/M01 A3041 RMK A01 T10031007  RH  098%=      5-min Rain = 0
KLD1 072050Z 01012KT M00/M01 A3042 RMK A01 T10031007  RH  098%=      5-min Rain = 0
KLD1 072055Z 02011G16KT M00/M01 A3042 RMK A01 T10011005  RH  098%=      5-min Rain = 0
KLD1 072100Z 01012KT M00/M01 A3041 RMK A01 T10011005  RH  098%=      5-min Rain = 0
KLD1 072105Z 00013KT M00/M01 A3041 RMK A01 T10011005  RH  098%=      5-min Rain = 0
KLD1 072110Z 01011KT M00/M01 A3042 RMK A01 T10011006  RH  098%=      5-min Rain = 0
KLD1 072115Z 01013KT M00/M01 A3042 RMK A01 T10021006  RH  098%=      5-min Rain = 0
KLD1 072120Z 01011KT M00/M01 A3042 RMK A01 T10011005  RH  098%=      5-min Rain = 0
KLD1 072125Z 00010KT 00/00 A3043 RMK A01 T000000-4  RH  098%=      5-min Rain = 0
KLD1 072130Z 36011KT 00/00 A3043 RMK A01 T000000-4  RH  098%=      5-min Rain = 0
KLD1 072135Z 36014KT M00/M01 A3042 RMK A01 T10021007  RH  098%=      5-min Rain = 0
KLD1 072140Z 00013KT M00/M01 A3042 RMK A01 T10011005  RH  098%=      5-min Rain = 0
KLD1 072145Z 01013KT 00/01 A3042 RMK A01 T00-000-5  RH  098%=      5-min Rain = 0
KLD1 072150Z 36014KT M00/M01 A3042 RMK A01 T10011005  RH  098%=      5-min Rain = 0
KLD1 072155Z 00012KT 00/01 A3042 RMK A01 T00-000-5  RH  098%=      5-min Rain = 0
KLD1 072200Z 00012KT 00/01 A3042 RMK A01 T00-000-5  RH  098%=      5-min Rain = 0
KLD1 072205Z 00012KT 00/01 A3042 RMK A01 T00-000-5  RH  098%=      5-min Rain = 0
KLD1 072210Z 35013KT M00/M01 A3042 RMK A01 T10011006  RH  098%=      5-min Rain = 0
KLD1 072215Z 00012KT M00/M01 A3042 RMK A01 T10011005  RH  098%=      5-min Rain = 0
KLD1 072220Z 00012KT M00/M01 A3042 RMK A01 T10011005  RH  099%=      5-min Rain = 0
KLD1 072225Z 36012KT M00/M00 A3042 RMK A01 T10011004  RH  099%=      5-min Rain = 0
KLD1 072230Z 01013KT M00/M01 A3041 RMK A01 T10021005  RH  099%=      5-min Rain = 0.01
KLD1 072235Z 35012KT M00/M01 A3042 RMK A01 T10031006  RH  099%=      5-min Rain = 0
KLD1 072240Z 35011KT M00/M01 A3042 RMK A01 T10031005  RH  099%=      5-min Rain = 0
KLD1 072245Z 36011KT M00/M01 A3043 RMK A01 T10021005  RH  099%=      5-min Rain = 0
KLD1 072250Z 36012KT M00/M01 A3042 RMK A01 T10031006  RH  099%=      5-min Rain = 0
KLD1 072255Z 36011KT M00/M01 A3042 RMK A01 T10031006  RH  099%=      5-min Rain = 0
KLD1 072300Z 36010KT M00/M01 A3043 RMK A01 T10021006  RH  098%=      5-min Rain = 0
KLD1 072305Z 01010KT M00/M01 A3043 RMK A01 T10021006  RH  098%=      5-min Rain = 0
KLD1 072310Z 01009KT M00/M01 A3043 RMK A01 T10011006  RH  098%=      5-min Rain = 0
KLD1 072315Z 00010KT M00/M01 A3044 RMK A01 T10011005  RH  098%=      5-min Rain = 0
KLD1 072320Z 00009KT M00/M01 A3044 RMK A01 T10011005  RH  098%=      5-min Rain = 0
KLD1 072325Z 00010KT 00/00 A3043 RMK A01 T00-000-4  RH  098%=      5-min Rain = 0
KLD1 072330Z 00010KT M00/M01 A3044 RMK A01 T10011005  RH  098%=      5-min Rain = 0
KLD1 072335Z 36009KT M00/M01 A3044 RMK A01 T10021006  RH  098%=      5-min Rain = 0
KLD1 072340Z 36009KT M00/M01 A3043 RMK A01 T10021006  RH  098%=      5-min Rain = 0
KLD1 072345Z 01009KT M00/M01 A3043 RMK A01 T10011005  RH  098%=      5-min Rain = 0
KLD1 072350Z 02009KT 00/00 A3043 RMK A01 T000000-4  RH  098%=      5-min Rain = 0
KLD1 072355Z 00011KT 00/00 A3043 RMK A01 T000000-4  RH  098%=      5-min Rain = 0
KLD1 080000Z 00008KT 00/00 A3043 RMK A01 T000000-4  RH  098%=      5-min Rain = 0
KLD1 080005Z 01010KT 00/M00 A3043 RMK A01 T00011003  RH  098%=      5-min Rain = 0
KLD1 080010Z 01009KT 00/00 A3043 RMK A01 T000000-4  RH  098%=      5-min Rain = 0
KLD1 080015Z 01010KT 00/00 A3043 RMK A01 T000000-3  RH  098%=      5-min Rain = 0
KLD1 080020Z 01008KT 00/00 A3043 RMK A01 T000000-4  RH  098%=      5-min Rain = 0
KLD1 080025Z 02009KT 00/00 A3043 RMK A01 T00-000-3  RH  099%=      5-min Rain = 0
KLD1 080030Z 01009KT M00/M00 A3043 RMK A01 T10011004  RH  099%=      5-min Rain = 0
KLD1 080035Z 02009KT M00/M00 A3043 RMK A01 T10011004  RH  099%=      5-min Rain = 0
KLD1 080040Z 02009KT M00/M00 A3043 RMK A01 T10011004  RH  099%=      5-min Rain = 0
KLD1 080045Z 01009KT M00/M00 A3043 RMK A01 T10011004  RH  099%=      5-min Rain = 0
KLD1 080050Z 01007KT 00/00 A3044 RMK A01 T00-000-3  RH  099%=      5-min Rain = 0
KLD1 080055Z 00006KT 00/M00 A3044 RMK A01 T00011003  RH  099%=      5-min Rain = 0
KLD1 080100Z 35007KT 00/M00 A3044 RMK A01 T00011002  RH  099%=      5-min Rain = 0
KLD1 080105Z 35008KT 00/M00 A3044 RMK A01 T00011002  RH  099%=      5-min Rain = 0
KLD1 080110Z 36008KT 00/00 A3044 RMK A01 T000000-2  RH  099%=      5-min Rain = 0
KLD1 080115Z 36008KT 00/M00 A3044 RMK A01 T00011002  RH  099%=      5-min Rain = 0
KLD1 080120Z 01008KT 00/M00 A3044 RMK A01 T00011001  RH  100%=      5-min Rain = 0
KLD1 080125Z 00008KT 00/M00 A3044 RMK A01 T00011001  RH  100%=      5-min Rain = 0
KLD1 080130Z 00008KT 00/M00 A3044 RMK A01 T00011001  RH  100%=      5-min Rain = 0
KLD1 080135Z 01009KT 00/M00 A3045 RMK A01 T00011001  RH  100%=      5-min Rain = 0
KLD1 080140Z 00007KT 00/M00 A3044 RMK A01 T00011001  RH  100%=      5-min Rain = 0
KLD1 080145Z 01008KT 00/00 A3044 RMK A01 T000100-0  RH  100%=      5-min Rain = 0
KLD1 080150Z 01009KT 00/00 A3044 RMK A01 T000100-0  RH  100%=      5-min Rain = 0
KLD1 080155Z 01007KT 00/00 A3044 RMK A01 T000100-0  RH  100%=      5-min Rain = 0
KLD1 080200Z 01007KT 00/00 A3044 RMK A01 T00020001  RH  100%=      5-min Rain = 0
KLD1 080205Z 01008KT 00/00 A3044 RMK A01 T00020000  RH  100%=      5-min Rain = 0
KLD1 080210Z 01008KT 00/00 A3045 RMK A01 T000100-0  RH  100%=      5-min Rain = 0
KLD1 080215Z 01007KT 00/00 A3045 RMK A01 T000100-0  RH  100%=      5-min Rain = 0
KLD1 080220Z 01007KT 00/00 A3044 RMK A01 T00020000  RH  100%=      5-min Rain = 0
KLD1 080225Z 01008KT 00/00 A3045 RMK A01 T00020000  RH  100%=      5-min Rain = 0
KLD1 080230Z 01008KT 00/00 A3045 RMK A01 T00020000  RH  100%=      5-min Rain = 0
KLD1 080235Z 01008KT 00/00 A3045 RMK A01 T00020000  RH  100%=      5-min Rain = 0
KLD1 080240Z 00006KT 00/00 A3045 RMK A01 T00020000  RH  100%=      5-min Rain = 0
KLD1 080245Z 02009KT 00/00 A3045 RMK A01 T00020000  RH  100%=      5-min Rain = 0
KLD1 080250Z 03007KT 00/00 A3045 RMK A01 T000100-0  RH  100%=      5-min Rain = 0
KLD1 080255Z 02006KT 00/00 A3046 RMK A01 T00020000  RH  100%=      5-min Rain = 0
KLD1 080300Z 01007KT 00/00 A3046 RMK A01 T00020000  RH  100%=      5-min Rain = 0
KLD1 080305Z 01008KT 00/00 A3045 RMK A01 T00020000  RH  100%=      5-min Rain = 0
KLD1 080310Z 01008KT 00/00 A3045 RMK A01 T00020000  RH  100%=      5-min Rain = 0
KLD1 080315Z 02007KT 00/00 A3046 RMK A01 T00020001  RH  100%=      5-min Rain = 0
KLD1 080320Z 01007KT 00/00 A3046 RMK A01 T00020000  RH  100%=      5-min Rain = 0
KLD1 080325Z 01007KT 00/00 A3046 RMK A01 T00020001  RH  100%=      5-min Rain = 0
KLD1 080330Z 01007KT 00/00 A3046 RMK A01 T00020000  RH  100%=      5-min Rain = 0
KLD1 080335Z 36007KT 00/00 A3046 RMK A01 T00020001  RH  100%=      5-min Rain = 0
KLD1 080340Z 00008KT 00/00 A3046 RMK A01 T00030001  RH  100%=      5-min Rain = 0
KLD1 080345Z 00007KT 00/00 A3046 RMK A01 T00030001  RH  100%=      5-min Rain = 0
KLD1 080350Z 01008KT 00/00 A3046 RMK A01 T00020001  RH  100%=      5-min Rain = 0
KLD1 080355Z 01007KT 00/00 A3046 RMK A01 T00030001  RH  100%=      5-min Rain = 0
KLD1 080400Z 00007KT 00/00 A3047 RMK A01 T00030001  RH  100%=      5-min Rain = 0
KLD1 080405Z 00008KT 00/00 A3046 RMK A01 T00020001  RH  100%=      5-min Rain = 0
KLD1 080410Z 00006KT 00/00 A3047 RMK A01 T00030001  RH  100%=      5-min Rain = 0
KLD1 080415Z 01007KT 00/00 A3047 RMK A01 T00030001  RH  100%=      5-min Rain = 0
KLD1 080420Z 02008KT 00/00 A3047 RMK A01 T00030001  RH  100%=      5-min Rain = 0
KLD1 080425Z 02007KT 00/00 A3047 RMK A01 T00030001  RH  100%=      5-min Rain = 0
KLD1 080430Z 01008KT 00/00 A3046 RMK A01 T00030001  RH  100%=      5-min Rain = 0
KLD1 080435Z 01007KT 00/00 A3046 RMK A01 T00030001  RH  100%=      5-min Rain = 0
KLD1 080440Z 03008KT 00/00 A3046 RMK A01 T00030001  RH  100%=      5-min Rain = 0
KLD1 080445Z 03008KT 00/00 A3046 RMK A01 T00020001  RH  100%=      5-min Rain = 0
KLD1 080450Z 03008KT 00/00 A3046 RMK A01 T00030001  RH  100%=      5-min Rain = 0
KLD1 080455Z 03007KT 00/00 A3046 RMK A01 T00030001  RH  100%=      5-min Rain = 0
KLD1 080500Z 02008KT 00/00 A3046 RMK A01 T00030001  RH  100%=      5-min Rain = 0
KLD1 080505Z 03008KT 00/00 A3046 RMK A01 T00020001  RH  100%=      5-min Rain = 0
KLD1 080510Z 03007KT 00/00 A3046 RMK A01 T00020000  RH  100%=      5-min Rain = 0
KLD1 080515Z 04008KT 00/00 A3046 RMK A01 T00020000  RH  100%=      5-min Rain = 0
KLD1 080520Z 04006KT 00/00 A3046 RMK A01 T00020000  RH  100%=      5-min Rain = 0
KLD1 080525Z 03006KT 00/00 A3046 RMK A01 T00030001  RH  100%=      5-min Rain = 0
KLD1 080530Z 02006KT 00/00 A3046 RMK A01 T00030001  RH  100%=      5-min Rain = 0
KLD1 080535Z 02006KT 00/00 A3046 RMK A01 T00030002  RH  100%=      5-min Rain = 0
KLD1 080540Z 01007KT 00/00 A3045 RMK A01 T00030002  RH  100%=      5-min Rain = 0
KLD1 080545Z 01007KT 00/00 A3045 RMK A01 T00040002  RH  100%=      5-min Rain = 0
KLD1 080550Z 02008KT 00/00 A3045 RMK A01 T00030002  RH  100%=      5-min Rain = 0
KLD1 080555Z 02007KT 00/00 A3045 RMK A01 T00020001  RH  100%=      5-min Rain = 0

Page generated in 0.0098 seconds.